Time;durP1;ratioP1;P1;durP2;ratioP2;P2;SDS_P1;SDS_P2;PMS_P1;PMS_P2;Temp;Humidity;BMP_temperature;BMP_pressure;BME280_temperature;BME280_humidity;BME280_pressure;Samples;Min_cycle;Max_cycle;Signal;HPM_P1;HPM_P2
2022/01/08 00:02:12;;;;;;;14.98;6.65;;;1.20;99.90;;;;;;4944020;28;20055;-95
2022/01/08 00:04:38;;;;;;;16.17;6.97;;;1.20;99.90;;;;;;4944100;28;20058;-95
2022/01/08 00:07:04;;;;;;;16.00;6.72;;;1.30;99.90;;;;;;4961395;28;20118;-96
2022/01/08 00:09:29;;;;;;;19.98;7.15;;;1.50;99.90;;;;;;4959822;28;20145;-95
2022/01/08 00:11:55;;;;;;;19.45;6.07;;;1.40;99.90;;;;;;4943577;28;20405;-96
2022/01/08 00:14:22;;;;;;;18.60;6.72;;;1.60;99.90;;;;;;4943917;28;20058;-95
2022/01/08 00:16:49;;;;;;;14.57;6.05;;;1.60;99.90;;;;;;4943636;28;20050;-95
2022/01/08 00:19:14;;;;;;;23.13;6.72;;;1.30;99.90;;;;;;4944788;28;20050;-95
2022/01/08 00:21:40;;;;;;;15.02;6.43;;;1.30;99.90;;;;;;4945510;28;20066;-95
2022/01/08 00:24:06;;;;;;;15.20;6.68;;;1.50;99.90;;;;;;4944390;28;20059;-95
2022/01/08 00:26:32;;;;;;;19.20;6.32;;;1.50;99.90;;;;;;4944911;28;20051;-96
2022/01/08 00:28:59;;;;;;;22.35;6.70;;;1.50;99.90;;;;;;4944346;28;20419;-95
2022/01/08 00:31:24;;;;;;;19.60;7.80;;;1.30;99.90;;;;;;4944384;28;20141;-95
2022/01/08 00:33:52;;;;;;;20.35;7.30;;;1.50;99.90;;;;;;4944126;28;20086;-96
2022/01/08 00:36:17;;;;;;;20.73;7.72;;;1.40;99.90;;;;;;4944741;28;20055;-95
2022/01/08 00:38:43;;;;;;;18.35;7.78;;;1.40;99.90;;;;;;4943451;28;20108;-96
2022/01/08 00:41:09;;;;;;;20.25;7.80;;;1.50;99.90;;;;;;4943289;28;20051;-96
2022/01/08 00:43:35;;;;;;;18.02;7.50;;;1.70;99.90;;;;;;4952124;28;20059;-95
2022/01/08 00:46:01;;;;;;;20.13;8.30;;;1.50;99.90;;;;;;4962695;28;20058;-95
2022/01/08 00:48:26;;;;;;;17.05;7.45;;;1.70;99.90;;;;;;4962686;28;20066;-94
2022/01/08 00:50:52;;;;;;;17.05;8.13;;;1.60;99.90;;;;;;4962953;28;20058;-96
2022/01/08 00:53:19;;;;;;;21.92;8.55;;;1.40;99.90;;;;;;4965019;28;20058;-96
2022/01/08 00:55:45;;;;;;;19.60;8.63;;;1.40;99.90;;;;;;4965383;28;20061;-96
2022/01/08 00:58:11;;;;;;;18.35;8.75;;;1.70;99.90;;;;;;4965210;28;20050;-96
2022/01/08 01:00:37;;;;;;;19.60;9.13;;;1.80;99.90;;;;;;4963979;28;20058;-95
2022/01/08 01:03:03;;;;;;;23.13;10.10;;;1.10;99.90;;;;;;4966685;28;20128;-96
2022/01/08 01:05:29;;;;;;;25.75;10.20;;;0.90;99.90;;;;;;4965302;28;20145;-96
2022/01/08 01:07:55;;;;;;;25.15;10.10;;;0.90;99.90;;;;;;4966403;28;20084;-95
2022/01/08 01:10:21;;;;;;;24.33;10.68;;;1.50;99.90;;;;;;4980461;28;20105;-96
2022/01/08 01:12:47;;;;;;;25.17;10.98;;;1.50;99.90;;;;;;4963532;28;20500;-96
2022/01/08 01:15:15;;;;;;;21.25;10.18;;;0.80;99.90;;;;;;4962565;28;20082;-95
2022/01/08 01:17:42;;;;;;;30.73;12.07;;;0.90;99.90;;;;;;4963158;28;20058;-96
2022/01/08 01:20:10;;;;;;;31.38;12.05;;;0.90;99.90;;;;;;4963020;28;20058;-96
2022/01/08 01:22:50;;;;;;;31.70;12.45;;;0.60;99.90;;;;;;4962125;28;20054;-94
2022/01/08 01:25:21;;;;;;;27.23;12.55;;;0.60;99.90;;;;;;4961724;28;20467;-95
2022/01/08 01:30:18;;;;;;;31.83;12.55;;;0.60;99.90;;;;;;4977765;28;20054;-95
2022/01/08 01:49:06;;;;;;;35.88;13.75;;;0.50;99.90;;;;;;4974451;28;20050;-94
2022/01/08 01:51:31;;;;;;;31.42;13.00;;;0.50;99.90;;;;;;4958357;28;20062;-95
2022/01/08 01:53:57;;;;;;;27.35;12.65;;;0.90;99.90;;;;;;4974107;28;20101;-96
2022/01/08 01:56:23;;;;;;;33.05;12.30;;;0.50;99.90;;;;;;4957796;28;20086;-94
2022/01/08 01:58:50;;;;;;;28.50;11.90;;;0.70;99.90;;;;;;4957556;28;20090;-94
2022/01/08 02:01:16;;;;;;;20.17;9.85;;;0.80;99.90;;;;;;4974032;28;20086;-96
2022/01/08 02:03:42;;;;;;;28.63;10.23;;;0.60;99.90;;;;;;4957705;28;20051;-94
2022/01/08 02:06:10;;;;;;;25.83;9.18;;;0.60;99.90;;;;;;4957777;28;20054;-95
2022/01/08 02:08:38;;;;;;;22.70;8.73;;;0.60;99.90;;;;;;4958074;28;20138;-95
2022/01/08 02:11:04;;;;;;;25.13;9.85;;;0.60;99.90;;;;;;4957964;28;20487;-96
2022/01/08 02:13:31;;;;;;;26.85;9.18;;;0.70;99.90;;;;;;4957942;28;20059;-93
2022/01/08 02:16:00;;;;;;;22.85;8.20;;;0.70;99.90;;;;;;4973639;28;20050;-95
2022/01/08 02:18:28;;;;;;;17.33;7.43;;;0.70;99.90;;;;;;4958040;28;20058;-95
2022/01/08 02:20:55;;;;;;;25.92;8.82;;;0.90;99.90;;;;;;4957782;28;20100;-94
2022/01/08 02:23:22;;;;;;;26.13;7.93;;;0.70;99.90;;;;;;4957697;28;20198;-94
2022/01/08 02:25:48;;;;;;;20.20;8.40;;;0.80;99.90;;;;;;4957615;28;20055;-95
2022/01/08 02:28:14;;;;;;;17.30;7.45;;;1.30;99.90;;;;;;4973679;28;20073;-94
2022/01/08 02:30:40;;;;;;;25.05;7.45;;;1.10;99.90;;;;;;4957663;28;20492;-94
2022/01/08 02:33:05;;;;;;;24.55;7.28;;;1.20;99.90;;;;;;4957706;28;20500;-94
2022/01/08 02:35:34;;;;;;;16.52;7.35;;;0.70;99.90;;;;;;4957485;28;20117;-94
2022/01/08 02:38:00;;;;;;;22.40;7.18;;;1.00;99.90;;;;;;4957685;28;20053;-95
2022/01/08 02:40:26;;;;;;;24.73;8.32;;;0.60;99.90;;;;;;4973644;28;20051;-94
2022/01/08 02:42:59;;;;;;;14.73;6.82;;;0.60;99.90;;;;;;4957742;28;20416;-94
2022/01/08 02:45:26;;;;;;;29.42;7.65;;;0.60;99.90;;;;;;4941287;28;20404;-93
2022/01/08 02:47:57;;;;;;;17.55;7.28;;;1.10;99.90;;;;;;4941651;28;20051;-93
2022/01/08 02:50:24;;;;;;;26.17;7.90;;;0.90;99.90;;;;;;4941633;28;20055;-92
2022/01/08 02:52:50;;;;;;;25.10;7.93;;;0.70;99.90;;;;;;4957364;28;20051;-93
2022/01/08 02:55:20;;;;;;;18.30;7.75;;;0.50;99.90;;;;;;4957963;28;20058;-93
2022/01/08 02:57:48;;;;;;;25.63;7.53;;;0.60;99.90;;;;;;4944814;28;20051;-94
2022/01/08 03:00:16;;;;;;;17.67;7.28;;;0.70;99.90;;;;;;4944763;28;20046;-94
2022/01/08 03:02:43;;;;;;;24.80;8.23;;;0.70;99.90;;;;;;4945152;28;20062;-93
2022/01/08 03:05:11;;;;;;;16.75;7.35;;;0.70;99.90;;;;;;4944921;28;20054;-92
2022/01/08 03:07:38;;;;;;;16.00;7.40;;;0.80;99.90;;;;;;4961037;28;20394;-94
2022/01/08 03:10:05;;;;;;;21.13;8.00;;;0.80;99.90;;;;;;4944894;28;20094;-94
2022/01/08 03:12:31;;;;;;;16.73;7.28;;;0.90;99.90;;;;;;4944779;28;20349;-94
2022/01/08 03:14:56;;;;;;;19.60;6.82;;;0.70;99.90;;;;;;4944643;28;20058;-94
2022/01/08 03:17:22;;;;;;;22.20;7.88;;;0.90;99.90;;;;;;4960706;28;20050;-94
2022/01/08 03:19:51;;;;;;;20.25;8.60;;;1.00;99.90;;;;;;4944935;28;20090;-92
2022/01/08 03:22:17;;;;;;;33.40;9.23;;;0.80;99.90;;;;;;4944513;28;20488;-92
2022/01/08 03:24:43;;;;;;;19.67;7.78;;;0.80;99.90;;;;;;4960507;28;20061;-94
2022/01/08 03:27:09;;;;;;;22.23;8.38;;;0.70;99.90;;;;;;4944735;28;20073;-94
2022/01/08 03:29:35;;;;;;;21.38;8.80;;;0.70;99.90;;;;;;4944397;28;20118;-93
2022/01/08 03:32:01;;;;;;;31.13;8.77;;;0.70;99.90;;;;;;4960695;28;20047;-93
2022/01/08 03:34:26;;;;;;;22.25;8.75;;;0.90;99.90;;;;;;4944621;28;20081;-94
2022/01/08 03:36:52;;;;;;;24.75;8.93;;;0.70;99.90;;;;;;4960239;28;20081;-95
2022/01/08 03:39:18;;;;;;;24.65;8.63;;;1.30;99.90;;;;;;4960407;28;20101;-91
2022/01/08 03:41:45;;;;;;;25.73;9.50;;;0.80;99.90;;;;;;4944390;28;20055;-93
2022/01/08 03:44:11;;;;;;;27.83;9.55;;;0.80;99.90;;;;;;4957569;28;20061;-94
2022/01/08 03:46:38;;;;;;;23.00;9.82;;;0.80;99.90;;;;;;4979891;28;20161;-95
2022/01/08 03:51:31;;;;;;;29.58;11.35;;;1.00;99.90;;;;;;4979683;28;20057;-93
2022/01/08 03:53:57;;;;;;;25.00;10.00;;;1.30;99.90;;;;;;4963356;28;20109;-93
2022/01/08 03:56:24;;;;;;;22.25;9.95;;;1.30;99.90;;;;;;4963131;28;20057;-93
2022/01/08 03:58:50;;;;;;;23.95;9.50;;;1.10;99.90;;;;;;4979318;28;20134;-90
2022/01/08 04:01:16;;;;;;;24.05;10.13;;;1.30;99.90;;;;;;4963274;28;20490;-92
2022/01/08 04:03:41;;;;;;;29.88;10.35;;;1.70;99.90;;;;;;4963017;28;20051;-91
2022/01/08 04:06:07;;;;;;;25.08;9.35;;;1.20;99.90;;;;;;4963117;28;20062;-92
2022/01/08 04:08:33;;;;;;;21.42;8.77;;;1.30;99.90;;;;;;4962787;28;20562;-91
2022/01/08 04:10:59;;;;;;;24.67;9.70;;;1.10;99.90;;;;;;4963245;28;20061;-92
2022/01/08 04:13:28;;;;;;;29.83;9.05;;;1.10;99.90;;;;;;4978821;28;20050;-91
2022/01/08 04:16:00;;;;;;;27.33;9.38;;;1.10;99.90;;;;;;4962761;28;20053;-91
2022/01/08 04:18:25;;;;;;;24.15;8.60;;;1.00;99.90;;;;;;4979125;28;20050;-91
2022/01/08 04:23:36;;;;;;;23.55;8.90;;;0.80;99.90;;;;;;4980039;28;20046;-91
2022/01/08 04:26:03;;;;;;;18.35;8.40;;;1.30;99.90;;;;;;4987087;28;20062;-90
2022/01/08 04:28:29;;;;;;;22.52;8.63;;;0.80;99.90;;;;;;4976777;28;20061;-90
2022/01/08 04:30:55;;;;;;;23.52;8.70;;;0.90;99.90;;;;;;4973853;28;20054;-92
2022/01/08 04:33:20;;;;;;;22.90;8.45;;;0.80;99.90;;;;;;4965044;28;20113;-91
2022/01/08 04:35:46;;;;;;;23.30;9.50;;;0.70;99.90;;;;;;4984804;28;20084;-91
2022/01/08 04:38:12;;;;;;;23.52;8.95;;;0.90;99.90;;;;;;4982196;28;20506;-90
2022/01/08 04:40:38;;;;;;;25.73;9.52;;;0.80;99.90;;;;;;4979148;28;20050;-90
2022/01/08 04:43:04;;;;;;;22.15;8.80;;;0.70;99.90;;;;;;4975781;28;20583;-90
2022/01/08 04:45:30;;;;;;;21.48;8.40;;;0.70;99.90;;;;;;4959445;28;20167;-91
2022/01/08 04:47:58;;;;;;;21.15;8.40;;;1.10;99.90;;;;;;4959530;28;20057;-92
2022/01/08 04:50:24;;;;;;;19.52;6.93;;;0.70;99.90;;;;;;4975383;28;20043;-91
2022/01/08 04:52:50;;;;;;;16.92;7.50;;;0.70;99.90;;;;;;4958945;28;20086;-91
2022/01/08 04:55:17;;;;;;;17.42;7.13;;;1.10;99.90;;;;;;4959073;28;20094;-91
2022/01/08 04:57:42;;;;;;;16.92;6.85;;;0.70;99.90;;;;;;4959436;28;20047;-92
2022/01/08 05:00:09;;;;;;;15.15;6.10;;;0.70;99.90;;;;;;4975994;28;20385;-90
2022/01/08 05:02:35;;;;;;;21.08;7.05;;;0.70;99.90;;;;;;4959148;28;20058;-91
2022/01/08 05:05:01;;;;;;;11.40;6.70;;;0.70;99.90;;;;;;4975139;28;20416;-90
2022/01/08 05:07:27;;;;;;;27.23;7.43;;;1.00;99.90;;;;;;4959590;28;20059;-91
2022/01/08 05:09:53;;;;;;;17.95;6.22;;;0.70;99.90;;;;;;4975798;28;20046;-90
2022/01/08 05:12:18;;;;;;;18.50;5.70;;;0.90;99.90;;;;;;4959747;28;20457;-91
2022/01/08 05:14:44;;;;;;;17.30;6.30;;;0.70;99.90;;;;;;4958441;28;20113;-91
2022/01/08 05:17:13;;;;;;;20.10;6.40;;;0.70;99.90;;;;;;4974774;28;20061;-91
2022/01/08 05:19:49;;;;;;;544.38;63.35;;;1.00;99.90;;;;;;4957824;28;20054;-90
2022/01/08 05:22:24;;;;;;;45.45;7.78;;;0.70;99.90;;;;;;4974644;28;20062;-91
2022/01/08 05:24:50;;;;;;;20.63;7.28;;;0.80;99.90;;;;;;4958258;28;20062;-91
2022/01/08 05:27:17;;;;;;;20.92;7.05;;;0.60;99.90;;;;;;4974703;28;20090;-92
2022/01/08 05:29:48;;;;;;;12.63;6.70;;;0.60;99.90;;;;;;4958960;28;20047;-94
2022/01/08 05:32:18;;;;;;;16.92;7.07;;;0.60;99.90;;;;;;4974537;28;20046;-94
2022/01/08 05:34:49;;;;;;;20.23;7.55;;;0.60;99.90;;;;;;4958517;28;20054;-95
2022/01/08 05:37:16;;;;;;;20.02;8.10;;;0.20;99.90;;;;;;4974109;28;20138;-95
2022/01/08 05:39:42;;;;;;;23.30;7.90;;;0.60;99.90;;;;;;4958041;28;20042;-94
2022/01/08 05:42:08;;;;;;;21.63;7.32;;;0.60;99.90;;;;;;4958704;28;20047;-95
2022/01/08 05:44:33;;;;;;;27.98;8.25;;;0.50;99.90;;;;;;4957840;28;20054;-95
2022/01/08 05:46:59;;;;;;;20.98;7.43;;;0.50;99.90;;;;;;4974404;28;20122;-94
2022/01/08 05:49:25;;;;;;;21.92;8.27;;;0.80;99.90;;;;;;4974423;28;20074;-94
2022/01/08 05:51:51;;;;;;;23.00;8.50;;;0.60;99.90;;;;;;4958255;28;20377;-95
2022/01/08 05:54:16;;;;;;;21.73;8.52;;;0.50;99.90;;;;;;4957979;28;20051;-94
2022/01/08 05:56:42;;;;;;;20.40;7.68;;;0.90;99.90;;;;;;4957822;28;20106;-95
2022/01/08 05:59:08;;;;;;;23.65;8.63;;;0.70;99.90;;;;;;4974185;28;20051;-94
2022/01/08 06:01:34;;;;;;;17.73;7.65;;;0.40;99.90;;;;;;4974120;28;20050;-95
2022/01/08 06:04:01;;;;;;;19.08;6.97;;;0.40;99.90;;;;;;4974173;28;20055;-95
2022/01/08 06:06:26;;;;;;;19.17;8.02;;;0.30;99.90;;;;;;4958048;28;20408;-94
2022/01/08 06:08:52;;;;;;;17.88;7.72;;;0.30;99.90;;;;;;4957960;28;20059;-95
2022/01/08 06:11:18;;;;;;;24.42;8.18;;;0.80;99.90;;;;;;4957853;28;20061;-95
2022/01/08 06:13:44;;;;;;;25.42;8.10;;;0.40;99.90;;;;;;4958053;28;20070;-94
2022/01/08 06:16:09;;;;;;;19.23;7.85;;;0.30;99.90;;;;;;4957613;28;20412;-93
2022/01/08 06:18:36;;;;;;;23.98;9.02;;;0.50;99.90;;;;;;4973959;28;20133;-94
2022/01/08 06:21:03;;;;;;;28.20;8.95;;;0.40;99.90;;;;;;4957706;28;20062;-94
2022/01/08 06:23:29;;;;;;;20.60;8.25;;;0.60;99.90;;;;;;4957995;28;20101;-94
2022/01/08 06:25:55;;;;;;;21.60;8.63;;;0.10;99.90;;;;;;4957721;28;20062;-93
2022/01/08 06:28:21;;;;;;;30.73;9.02;;;0.00;99.90;;;;;;4957809;28;20055;-93
2022/01/08 06:30:47;;;;;;;21.55;7.70;;;0.00;99.90;;;;;;4959716;28;20102;-96
2022/01/08 06:33:14;;;;;;;21.65;8.50;;;0.10;99.90;;;;;;4961565;28;20058;-94
2022/01/08 06:35:40;;;;;;;24.75;8.75;;;0.00;99.90;;;;;;4961613;28;20055;-93
2022/01/08 06:38:05;;;;;;;26.40;8.77;;;0.00;99.90;;;;;;4977733;28;20407;-94
2022/01/08 06:40:32;;;;;;;24.35;8.02;;;-0.10;99.90;;;;;;4961174;28;20043;-94
2022/01/08 06:42:57;;;;;;;25.17;7.93;;;-0.10;99.90;;;;;;4961099;28;20134;-94
2022/01/08 06:45:23;;;;;;;20.42;7.70;;;0.00;99.90;;;;;;4961457;28;20051;-93
2022/01/08 06:47:49;;;;;;;23.17;8.25;;;-0.20;99.90;;;;;;4977543;28;20512;-93
2022/01/08 06:50:15;;;;;;;22.77;8.27;;;-0.10;99.90;;;;;;4977500;28;20050;-94
2022/01/08 06:52:40;;;;;;;24.30;8.00;;;0.00;99.90;;;;;;4961507;28;20512;-91
2022/01/08 06:55:06;;;;;;;24.08;7.50;;;0.10;99.90;;;;;;4961221;28;20066;-91
2022/01/08 06:57:32;;;;;;;20.85;7.50;;;-0.20;99.90;;;;;;4961053;28;20046;-91
2022/01/08 07:00:00;;;;;;;22.48;8.15;;;0.20;99.90;;;;;;4960926;28;20051;-91
2022/01/08 07:02:26;;;;;;;26.50;8.50;;;-0.20;99.90;;;;;;4961571;28;20063;-92
2022/01/08 07:04:51;;;;;;;19.05;7.70;;;-0.30;99.90;;;;;;4961059;28;20065;-91
2022/01/08 07:07:17;;;;;;;23.75;7.20;;;-0.20;99.90;;;;;;4961142;28;20090;-92
2022/01/08 07:09:43;;;;;;;22.67;7.05;;;-0.30;99.90;;;;;;4976944;28;20061;-93
2022/01/08 07:12:09;;;;;;;18.50;7.32;;;-0.40;99.90;;;;;;4976697;28;20042;-91
2022/01/08 07:14:34;;;;;;;27.08;7.55;;;-0.40;99.90;;;;;;4977337;28;20054;-91
2022/01/08 07:17:00;;;;;;;22.27;7.03;;;-0.40;99.90;;;;;;4960683;28;20050;-92
2022/01/08 07:19:26;;;;;;;17.30;6.90;;;-0.40;99.90;;;;;;4961346;28;20063;-92
2022/01/08 07:21:51;;;;;;;18.50;6.53;;;-0.30;99.90;;;;;;4963039;28;20058;-91
2022/01/08 07:24:17;;;;;;;21.83;6.45;;;-0.20;99.90;;;;;;4962650;28;20118;-92
2022/01/08 07:26:43;;;;;;;18.27;6.60;;;-0.30;99.90;;;;;;4962212;28;20058;-91
2022/01/08 07:29:09;;;;;;;916.88;101.22;;;-0.20;99.90;;;;;;4962706;28;20160;-92
2022/01/08 07:31:35;;;;;;;101.40;11.00;;;-0.30;99.90;;;;;;4962444;28;20069;-91
2022/01/08 07:34:01;;;;;;;25.08;7.15;;;-0.10;99.90;;;;;;4962351;28;20070;-91
2022/01/08 07:36:26;;;;;;;21.90;7.25;;;-0.30;99.90;;;;;;4978578;28;20058;-91
2022/01/08 07:38:52;;;;;;;23.92;7.53;;;0.10;99.90;;;;;;4962721;28;20059;-91
2022/01/08 07:41:18;;;;;;;26.63;7.75;;;0.00;99.90;;;;;;4962056;28;20408;-91
2022/01/08 07:43:43;;;;;;;20.90;7.13;;;0.30;99.90;;;;;;4947124;28;20051;-91
2022/01/08 07:46:09;;;;;;;16.05;6.60;;;0.50;99.90;;;;;;4962520;28;20551;-91
2022/01/08 07:48:35;;;;;;;24.95;7.35;;;0.30;99.90;;;;;;4927982;29;20142;-91
2022/01/08 07:51:01;;;;;;;22.00;8.10;;;0.40;99.90;;;;;;4926999;29;20067;-91
2022/01/08 07:53:27;;;;;;;24.73;8.13;;;0.30;99.90;;;;;;4927524;29;20492;-92
2022/01/08 07:55:52;;;;;;;20.00;7.57;;;0.40;99.90;;;;;;4927692;29;20043;-92
2022/01/08 07:58:21;;;;;;;24.05;7.70;;;0.70;99.90;;;;;;4927423;29;20059;-91
2022/01/08 08:00:51;;;;;;;24.58;8.15;;;0.80;99.90;;;;;;4927476;29;20066;-90
2022/01/08 08:03:18;;;;;;;19.90;6.85;;;0.50;99.90;;;;;;4927084;29;20061;-91
2022/01/08 08:05:45;;;;;;;23.85;8.25;;;0.20;99.90;;;;;;4955631;28;20059;-92
2022/01/08 08:08:15;;;;;;;24.20;8.07;;;0.10;99.90;;;;;;4977784;28;20129;-90
2022/01/08 08:10:40;;;;;;;17.70;7.15;;;0.20;99.90;;;;;;4977944;28;20050;-91
2022/01/08 08:13:06;;;;;;;21.20;6.55;;;0.40;99.90;;;;;;4961391;28;20158;-92
2022/01/08 08:15:32;;;;;;;810.08;48.22;;;0.20;99.90;;;;;;4962084;28;20054;-91
2022/01/08 08:17:58;;;;;;;14.18;6.22;;;0.50;99.90;;;;;;4962907;28;20062;-91
2022/01/08 08:20:23;;;;;;;55.88;8.48;;;0.40;99.90;;;;;;4978239;28;20082;-90
2022/01/08 08:22:49;;;;;;;21.10;6.63;;;0.30;99.90;;;;;;4962149;28;20050;-91
2022/01/08 08:25:15;;;;;;;481.38;33.97;;;0.70;99.90;;;;;;4962388;28;20067;-92
2022/01/08 08:27:41;;;;;;;23.10;6.80;;;0.50;99.90;;;;;;4962238;28;20051;-91
2022/01/08 08:30:08;;;;;;;21.27;6.40;;;0.60;99.90;;;;;;4962080;28;20069;-91
2022/01/08 08:32:34;;;;;;;231.57;29.05;;;0.30;99.90;;;;;;4978346;28;20094;-91
2022/01/08 08:35:03;;;;;;;33.47;8.82;;;0.30;99.90;;;;;;4961881;28;20122;-93
2022/01/08 08:37:28;;;;;;;22.73;7.43;;;0.40;99.90;;;;;;4961705;28;20141;-92
2022/01/08 08:39:54;;;;;;;25.20;7.80;;;0.50;99.90;;;;;;4961698;28;20583;-92
2022/01/08 08:42:20;;;;;;;14.35;5.82;;;0.90;99.90;;;;;;4963119;28;20428;-90
2022/01/08 08:44:45;;;;;;;18.33;6.38;;;0.80;99.90;;;;;;4960680;28;20055;-91
2022/01/08 08:47:11;;;;;;;23.63;6.55;;;0.50;99.90;;;;;;4961556;28;20108;-91
2022/01/08 08:49:37;;;;;;;16.33;5.60;;;0.50;99.90;;;;;;4961808;28;20057;-93
2022/01/08 08:52:03;;;;;;;22.02;6.57;;;0.50;99.90;;;;;;4978007;28;20460;-91
2022/01/08 08:54:29;;;;;;;20.20;5.88;;;0.60;99.90;;;;;;4961402;28;20445;-91
2022/01/08 08:56:55;;;;;;;23.60;6.78;;;0.60;99.90;;;;;;4961961;28;20047;-93
2022/01/08 08:59:23;;;;;;;15.52;6.05;;;0.70;99.90;;;;;;4961668;28;20061;-92
2022/01/08 09:01:50;;;;;;;19.40;6.43;;;0.70;99.90;;;;;;4962348;28;20055;-93
2022/01/08 09:04:16;;;;;;;18.23;7.18;;;0.90;99.90;;;;;;4961837;28;20468;-93
2022/01/08 09:06:42;;;;;;;19.42;7.07;;;0.80;99.90;;;;;;4961623;28;20113;-92
2022/01/08 09:09:07;;;;;;;18.73;7.38;;;0.90;99.90;;;;;;4961174;28;20055;-92
2022/01/08 09:11:34;;;;;;;25.40;7.60;;;1.00;99.90;;;;;;4961897;28;20046;-92
2022/01/08 09:14:00;;;;;;;17.70;7.68;;;1.10;99.90;;;;;;4977234;28;20066;-93
2022/01/08 09:16:27;;;;;;;20.45;7.07;;;1.30;99.90;;;;;;4961426;28;20500;-92
2022/01/08 09:18:53;;;;;;;17.40;6.90;;;1.50;99.90;;;;;;4977346;28;20185;-94
2022/01/08 09:21:19;;;;;;;16.02;7.43;;;1.30;99.90;;;;;;4977758;28;20549;-92
2022/01/08 09:23:45;;;;;;;21.40;8.00;;;1.60;99.90;;;;;;4977605;28;20074;-93
2022/01/08 09:26:11;;;;;;;19.77;7.95;;;1.50;99.90;;;;;;4961880;28;20051;-93
2022/01/08 09:28:37;;;;;;;24.48;8.38;;;1.50;99.90;;;;;;4977290;28;20055;-93
2022/01/08 09:31:03;;;;;;;18.45;7.97;;;1.70;99.90;;;;;;4977690;28;20058;-93
2022/01/08 09:33:30;;;;;;;27.42;7.82;;;1.60;99.90;;;;;;4961199;28;20123;-92
2022/01/08 09:35:56;;;;;;;19.10;8.15;;;1.70;99.90;;;;;;4961546;28;20240;-94
2022/01/08 09:38:22;;;;;;;15.10;7.50;;;1.80;99.90;;;;;;4961752;28;20082;-94
2022/01/08 09:40:48;;;;;;;18.67;7.70;;;2.10;99.90;;;;;;4961613;28;20059;-94
2022/01/08 09:43:16;;;;;;;17.70;7.82;;;1.90;99.90;;;;;;4961350;28;20492;-93
2022/01/08 09:45:43;;;;;;;19.80;7.90;;;2.00;99.90;;;;;;4961909;28;20408;-92
2022/01/08 09:48:08;;;;;;;16.92;7.78;;;1.90;99.90;;;;;;4977518;28;20058;-94
2022/01/08 09:50:34;;;;;;;17.08;8.73;;;1.70;99.90;;;;;;4961179;28;20054;-94
2022/01/08 09:53:00;;;;;;;15.18;7.82;;;1.60;99.90;;;;;;4960228;28;20081;-92
2022/01/08 09:55:27;;;;;;;17.98;6.75;;;1.90;99.90;;;;;;4975939;28;20054;-93
2022/01/08 09:57:54;;;;;;;15.63;7.25;;;2.30;99.90;;;;;;4959927;28;20051;-92
2022/01/08 10:00:21;;;;;;;13.98;6.57;;;2.80;99.90;;;;;;4975971;28;20599;-92
2022/01/08 10:02:50;;;;;;;12.68;6.35;;;3.30;99.90;;;;;;4976516;28;20085;-93
2022/01/08 10:05:16;;;;;;;9.10;5.50;;;4.20;99.90;;;;;;4959729;28;20058;-92
2022/01/08 10:07:55;;;;;;;12.65;5.35;;;4.80;99.90;;;;;;4976785;28;20047;-90
2022/01/08 10:10:21;;;;;;;13.10;5.72;;;5.60;99.90;;;;;;4979659;28;20114;-95
2022/01/08 10:12:59;;;;;;;10.35;4.85;;;6.20;99.90;;;;;;4963962;28;20089;-93
2022/01/08 10:18:31;;;;;;;22.20;9.35;;;6.90;99.90;;;;;;4976924;28;20061;-95
2022/01/08 10:20:57;;;;;;;12.80;5.82;;;7.00;99.90;;;;;;4962870;28;20047;-94
2022/01/08 10:23:26;;;;;;;15.82;5.93;;;7.10;99.90;;;;;;4961722;28;20067;-94
2022/01/08 10:26:09;;;;;;;13.93;5.95;;;7.20;99.90;;;;;;4963116;28;20058;-95
2022/01/08 10:28:52;;;;;;;13.77;6.88;;;7.20;99.90;;;;;;4962232;28;20070;-95
2022/01/08 10:31:23;;;;;;;9.10;4.72;;;7.30;99.90;;;;;;4961252;28;20062;-95
2022/01/08 10:34:03;;;;;;;12.48;5.50;;;7.40;99.90;;;;;;4961937;28;20173;-94
2022/01/08 10:36:36;;;;;;;12.80;5.43;;;7.00;99.90;;;;;;4961346;28;20047;-94
2022/01/08 10:39:05;;;;;;;10.52;5.35;;;7.10;99.90;;;;;;4977805;28;20409;-94
2022/01/08 10:41:31;;;;;;;12.23;5.47;;;6.80;99.90;;;;;;4977111;28;20133;-94
2022/01/08 10:44:20;;;;;;;16.00;5.47;;;6.20;99.90;;;;;;4960588;28;20090;-94
2022/01/08 10:47:07;;;;;;;13.75;6.03;;;5.60;99.90;;;;;;4961260;28;20063;-94
2022/01/08 10:49:42;;;;;;;15.45;6.40;;;5.20;99.90;;;;;;4976460;28;20055;-93
2022/01/08 10:52:16;;;;;;;13.20;6.25;;;4.80;99.90;;;;;;4959718;28;20051;-93
2022/01/08 10:54:45;;;;;;;14.35;5.88;;;4.80;99.90;;;;;;4960583;28;20077;-93
2022/01/08 10:57:14;;;;;;;14.38;7.30;;;4.30;99.90;;;;;;4975527;28;20055;-93
2022/01/08 10:59:42;;;;;;;15.20;6.57;;;4.30;99.90;;;;;;4976916;28;20058;-94
2022/01/08 11:02:12;;;;;;;22.42;7.70;;;4.10;99.90;;;;;;4975951;28;20090;-93
2022/01/08 11:04:52;;;;;;;20.30;7.20;;;4.10;99.90;;;;;;4960794;28;20550;-93
2022/01/08 11:07:26;;;;;;;18.10;7.35;;;4.60;99.90;;;;;;4960134;28;20063;-93
2022/01/08 11:09:54;;;;;;;11.65;6.13;;;4.20;99.90;;;;;;4975123;28;20050;-94
2022/01/08 11:12:36;;;;;;;13.15;7.07;;;4.20;99.90;;;;;;4959369;28;20129;-93
2022/01/08 11:17:47;;;;;;;14.18;6.95;;;4.00;99.90;;;;;;4978490;28;20105;-94
2022/01/08 11:20:24;;;;;;;15.45;7.40;;;4.40;99.90;;;;;;4963757;28;20054;-94
2022/01/08 11:22:53;;;;;;;17.88;7.82;;;4.40;99.90;;;;;;4963329;28;20054;-94
2022/01/08 11:25:21;;;;;;;15.55;7.93;;;4.30;99.90;;;;;;4963413;28;20055;-94
2022/01/08 11:28:03;;;;;;;16.60;7.88;;;4.40;99.90;;;;;;4979314;28;20055;-93
2022/01/08 11:30:32;;;;;;;18.20;8.40;;;4.10;99.90;;;;;;4963102;28;20057;-93
2022/01/08 11:33:08;;;;;;;16.40;8.15;;;4.10;99.90;;;;;;4963004;28;20081;-94
2022/01/08 11:35:36;;;;;;;18.00;10.10;;;4.00;99.90;;;;;;4961054;28;20059;-93
2022/01/08 11:38:04;;;;;;;18.15;10.38;;;4.50;99.90;;;;;;4961383;28;20059;-93
2022/01/08 11:40:31;;;;;;;25.05;13.15;;;4.10;99.90;;;;;;4945721;29;20503;-95
2022/01/08 11:43:02;;;;;;;21.45;11.88;;;4.50;99.90;;;;;;4941648;29;20043;-94
2022/01/08 11:45:43;;;;;;;19.40;10.77;;;4.20;99.90;;;;;;4941599;29;20147;-93
2022/01/08 11:48:10;;;;;;;;;;;4.50;99.90;;;;;;4946375;28;20049;-93
2022/01/08 11:50:36;;;;;;;21.77;11.75;;;4.10;99.90;;;;;;4945445;28;19933;-94
2022/01/08 11:53:31;;;;;;;13.95;9.57;;;4.10;99.90;;;;;;4957537;28;20539;-94
2022/01/08 11:55:59;;;;;;;20.80;10.80;;;4.10;99.90;;;;;;4944803;28;20047;-93
2022/01/08 11:58:37;;;;;;;18.50;11.18;;;4.20;99.90;;;;;;4948697;28;20054;-93
2022/01/08 12:01:12;;;;;;;22.58;11.73;;;4.10;99.90;;;;;;4949494;28;20077;-94
2022/01/08 12:03:40;;;;;;;19.35;12.18;;;4.10;99.90;;;;;;4947779;28;20051;-93
2022/01/08 12:06:29;;;;;;;21.88;12.48;;;4.40;99.90;;;;;;4952917;28;20051;-93
2022/01/08 12:09:24;;;;;;;24.05;13.65;;;3.90;99.90;;;;;;4952094;28;20059;-92
2022/01/08 12:12:04;;;;;;;25.90;13.82;;;3.90;99.90;;;;;;4944426;28;20534;-93
2022/01/08 12:14:36;;;;;;;31.48;18.17;;;3.80;99.90;;;;;;4965311;28;20046;-92
2022/01/08 12:17:18;;;;;;;25.10;15.07;;;3.80;99.90;;;;;;4934361;28;20089;-89
2022/01/08 12:19:56;;;;;;;23.13;14.93;;;3.70;99.90;;;;;;4971966;28;20042;-91
2022/01/08 12:22:22;;;;;;;33.47;15.95;;;3.70;99.90;;;;;;4943098;28;20052;-91
2022/01/08 12:24:51;;;;;;;30.85;17.92;;;4.10;99.90;;;;;;4960057;28;20559;-90
2022/01/08 12:27:44;;;;;;;25.67;15.88;;;3.70;99.90;;;;;;4958659;28;20476;-90
2022/01/08 12:30:20;;;;;;;24.77;15.82;;;3.70;99.90;;;;;;4961228;28;20050;-92
2022/01/08 12:32:49;;;;;;;24.30;14.50;;;3.70;99.90;;;;;;4956777;28;20054;-91
2022/01/08 12:38:06;;;;;;;25.63;16.25;;;3.80;99.90;;;;;;4957490;28;20058;-91
2022/01/08 12:40:49;;;;;;;25.58;16.52;;;3.70;99.90;;;;;;4941955;28;20253;-92
2022/01/08 12:43:23;;;;;;;30.13;16.90;;;3.70;99.90;;;;;;4957067;28;20058;-92
2022/01/08 12:46:09;;;;;;;26.63;16.35;;;3.70;99.90;;;;;;4958783;28;20411;-93
2022/01/08 12:48:35;;;;;;;27.30;16.95;;;3.80;99.90;;;;;;4942320;28;20431;-93
2022/01/08 12:51:05;;;;;;;28.63;17.20;;;3.80;99.90;;;;;;4941183;28;20188;-92
2022/01/08 12:53:32;;;;;;;30.27;18.23;;;3.70;99.90;;;;;;4958103;28;20106;-92
2022/01/08 12:55:57;;;;;;;31.73;18.33;;;3.70;99.90;;;;;;4958160;28;20050;-92
2022/01/08 12:58:43;;;;;;;26.50;15.23;;;3.70;99.90;;;;;;4955412;28;20050;-94
2022/01/08 13:01:18;;;;;;;23.58;14.60;;;3.80;99.90;;;;;;4954819;28;20093;-93
2022/01/08 13:03:53;;;;;;;29.00;16.70;;;3.70;99.90;;;;;;4967732;28;20094;-91
2022/01/08 13:06:25;;;;;;;29.60;17.08;;;3.70;99.90;;;;;;4955354;28;20066;-92
2022/01/08 13:08:52;;;;;;;35.75;17.88;;;3.70;99.90;;;;;;4954917;28;20386;-92
2022/01/08 13:11:24;;;;;;;28.60;16.95;;;3.80;99.90;;;;;;4956991;28;20062;-91
2022/01/08 13:14:00;;;;;;;28.10;17.08;;;3.90;99.90;;;;;;4958506;28;20050;-91
2022/01/08 13:16:53;;;;;;;27.58;17.15;;;3.80;99.90;;;;;;4958262;28;20062;-91
2022/01/08 13:19:24;;;;;;;30.77;15.82;;;4.00;99.90;;;;;;4956530;28;20138;-94
2022/01/08 13:22:02;;;;;;;31.92;18.10;;;3.80;99.90;;;;;;4958921;28;20061;-92